createdAt,value
2023-02-03T00:02:23.945Z,3.70
2023-02-03T00:04:56.766Z,4.53
2023-02-03T00:07:30.044Z,3.80
2023-02-03T00:10:04.812Z,3.63
2023-02-03T00:12:37.724Z,5.97
2023-02-03T00:15:11.253Z,4.18
2023-02-03T00:17:44.134Z,3.45
2023-02-03T00:20:17.082Z,3.72
2023-02-03T00:22:50.083Z,4.82
2023-02-03T00:25:24.247Z,3.90
2023-02-03T00:27:57.072Z,3.75
2023-02-03T00:30:30.217Z,4.68
2023-02-03T00:33:03.353Z,7.00
2023-02-03T00:35:39.427Z,2.20
2023-02-03T00:38:12.262Z,3.97
2023-02-03T00:40:53.659Z,7.28
2023-02-03T00:43:26.553Z,3.13
2023-02-03T00:45:59.483Z,3.47
2023-02-03T00:48:32.385Z,2.15
2023-02-03T00:51:05.392Z,3.45
2023-02-03T00:53:38.200Z,3.53
2023-02-03T00:56:14.056Z,3.40
2023-02-03T00:58:46.871Z,3.83
2023-02-03T01:01:19.737Z,4.68
2023-02-03T01:03:52.609Z,6.60
2023-02-03T01:06:25.522Z,3.35
2023-02-03T01:08:58.485Z,2.83
2023-02-03T01:11:33.712Z,5.85
2023-02-03T01:14:06.585Z,4.72
2023-02-03T01:16:39.932Z,4.68
2023-02-03T01:19:14.784Z,6.63
2023-02-03T01:21:47.601Z,1.58
2023-02-03T01:24:20.393Z,3.58
2023-02-03T01:26:54.769Z,2.85
2023-02-03T01:29:27.733Z,6.28
2023-02-03T01:32:00.725Z,4.10
2023-02-03T01:34:33.584Z,5.15
2023-02-03T01:37:06.401Z,4.90
2023-02-03T01:39:39.225Z,7.10
2023-02-03T01:42:15.554Z,5.97
2023-02-03T01:44:51.352Z,4.07
2023-02-03T01:47:29.215Z,2.78
2023-02-03T01:50:10.776Z,6.15
2023-02-03T01:52:46.686Z,2.13
2023-02-03T01:55:23.498Z,2.88
2023-02-03T01:58:05.267Z,2.42
2023-02-03T02:00:38.250Z,3.47
2023-02-03T02:03:11.831Z,2.13
2023-02-03T02:05:49.261Z,5.28
2023-02-03T02:08:23.485Z,3.95
2023-02-03T02:10:56.831Z,2.47
2023-02-03T02:13:34.981Z,3.90
2023-02-03T02:16:13.073Z,3.15
2023-02-03T02:19:02.680Z,5.10
2023-02-03T02:21:46.712Z,2.95
2023-02-03T02:24:51.289Z,3.38
2023-02-03T02:27:45.593Z,4.72
2023-02-03T02:30:37.900Z,2.95
2023-02-03T02:33:28.280Z,4.65
2023-02-03T02:36:12.732Z,3.70
2023-02-03T02:38:54.947Z,3.05
2023-02-03T02:41:31.288Z,2.47
2023-02-03T02:44:10.968Z,6.13
2023-02-03T02:46:48.272Z,5.78
2023-02-03T02:49:29.219Z,2.97
2023-02-03T02:52:06.179Z,2.23
2023-02-03T02:54:43.453Z,2.33
2023-02-03T02:57:19.567Z,3.47
2023-02-03T02:59:52.396Z,6.57
2023-02-03T03:02:33.217Z,4.00
2023-02-03T03:05:11.496Z,3.53
2023-02-03T03:07:49.594Z,3.95
2023-02-03T03:10:27.445Z,2.47
2023-02-03T03:13:04.820Z,2.03
2023-02-03T03:15:39.906Z,5.25
2023-02-03T03:18:17.351Z,3.35
2023-02-03T03:20:54.467Z,2.53
2023-02-03T03:23:33.559Z,2.92
2023-02-03T03:26:15.610Z,2.75
2023-02-03T03:28:50.907Z,2.72
2023-02-03T03:31:23.896Z,4.13
2023-02-03T03:33:56.768Z,4.35
2023-02-03T03:36:37.318Z,2.35
2023-02-03T03:39:17.048Z,3.17
2023-02-03T03:41:59.021Z,5.35
2023-02-03T03:44:39.298Z,2.88
2023-02-03T03:47:20.002Z,1.73
2023-02-03T03:49:54.940Z,2.00
2023-02-03T03:52:34.802Z,1.13
2023-02-03T03:55:11.624Z,3.20
2023-02-03T03:57:53.220Z,1.95
2023-02-03T04:00:29.902Z,4.03
2023-02-03T04:03:14.592Z,5.60
2023-02-03T04:05:47.479Z,1.92
2023-02-03T04:08:21.956Z,2.58
2023-02-03T04:10:54.802Z,2.35
2023-02-03T04:13:27.620Z,3.00
2023-02-03T04:16:00.503Z,3.92
2023-02-03T04:18:33.382Z,2.42
2023-02-03T04:21:06.550Z,2.60
2023-02-03T04:23:40.731Z,2.70
2023-02-03T04:26:13.598Z,1.90
2023-02-03T04:28:46.432Z,6.10
2023-02-03T04:31:19.370Z,1.45
2023-02-03T04:33:52.269Z,1.55
2023-02-03T04:36:25.863Z,1.33
2023-02-03T04:39:00.088Z,3.47
2023-02-03T04:41:32.952Z,2.30
2023-02-03T04:44:06.081Z,3.92
2023-02-03T04:46:38.908Z,2.50
2023-02-03T04:49:12.164Z,2.28
2023-02-03T04:51:45.514Z,2.65
2023-02-03T04:54:19.735Z,2.05
2023-02-03T04:56:52.710Z,2.45
2023-02-03T04:59:25.536Z,4.00
2023-02-03T05:01:58.617Z,4.63
2023-02-03T05:04:31.981Z,7.20
2023-02-03T05:07:04.813Z,1.67
2023-02-03T05:09:39.058Z,2.10
2023-02-03T05:12:11.989Z,3.85
2023-02-03T05:14:44.923Z,4.55
2023-02-03T05:17:17.821Z,2.47
2023-02-03T05:19:50.596Z,2.90
2023-02-03T05:22:23.528Z,4.22
2023-02-03T05:24:57.737Z,4.32
2023-02-03T05:27:30.906Z,3.92
2023-02-03T05:30:03.702Z,5.03
2023-02-03T05:32:36.687Z,3.10
2023-02-03T05:35:09.766Z,2.17
2023-02-03T05:37:45.002Z,3.55
2023-02-03T05:40:37.664Z,3.38
2023-02-03T05:43:10.594Z,4.10
2023-02-03T05:45:43.437Z,7.18
2023-02-03T05:48:16.356Z,6.80
2023-02-03T05:50:49.198Z,2.45
2023-02-03T05:53:22.376Z,4.20
2023-02-03T05:55:56.565Z,3.83
2023-02-03T05:58:29.433Z,3.28
2023-02-03T06:01:02.280Z,5.00
2023-02-03T06:03:35.146Z,3.72
2023-02-03T06:06:08.158Z,4.32
2023-02-03T06:08:41.021Z,3.97
2023-02-03T06:11:15.196Z,2.25
2023-02-03T06:13:48.669Z,5.20
2023-02-03T06:16:22.149Z,3.53
2023-02-03T06:18:55.802Z,4.25
2023-02-03T06:21:29.225Z,3.30
2023-02-03T06:24:02.369Z,2.28
2023-02-03T06:26:36.533Z,3.08
2023-02-03T06:29:09.443Z,3.38
2023-02-03T06:31:42.396Z,1.42
2023-02-03T06:34:15.399Z,2.05
2023-02-03T06:36:48.502Z,4.90
2023-02-03T06:39:21.383Z,3.35
2023-02-03T06:41:56.281Z,2.72
2023-02-03T06:44:29.200Z,1.30
2023-02-03T06:47:02.925Z,1.98
2023-02-03T06:49:35.772Z,2.47
2023-02-03T06:52:08.658Z,3.53
2023-02-03T06:54:41.608Z,3.88
2023-02-03T06:57:15.812Z,2.72
2023-02-03T06:59:48.743Z,2.78
2023-02-03T07:02:21.832Z,2.30
2023-02-03T07:04:54.735Z,5.45
2023-02-03T07:07:27.543Z,2.75
2023-02-03T07:10:00.414Z,6.60
2023-02-03T07:12:36.450Z,3.92
2023-02-03T07:15:10.577Z,1.75
2023-02-03T07:17:43.370Z,2.70
2023-02-03T07:20:16.455Z,2.40
2023-02-03T07:23:00.703Z,2.65
2023-02-03T07:25:33.529Z,2.55
2023-02-03T07:28:07.920Z,3.50
2023-02-03T07:30:40.888Z,2.95
2023-02-03T07:33:13.691Z,2.72
2023-02-03T07:35:53.165Z,5.28
2023-02-03T07:38:27.289Z,2.97
2023-02-03T07:41:00.194Z,2.55
2023-02-03T07:43:34.439Z,2.50
2023-02-03T07:46:07.364Z,2.97
2023-02-03T07:48:40.190Z,2.63
2023-02-03T07:51:13.075Z,2.35
2023-02-03T07:53:46.256Z,1.75
2023-02-03T07:56:19.125Z,7.57
2023-02-03T07:58:54.757Z,3.38
2023-02-03T08:01:28.238Z,2.40
2023-02-03T08:04:02.111Z,5.47
2023-02-03T08:06:35.087Z,4.90
2023-02-03T08:09:07.954Z,2.20
2023-02-03T08:11:40.844Z,3.55
2023-02-03T08:14:15.233Z,3.10
2023-02-03T08:16:48.122Z,2.40
2023-02-03T08:19:20.948Z,2.38
2023-02-03T08:21:53.856Z,2.55
2023-02-03T08:24:26.691Z,1.67
2023-02-03T08:27:00.954Z,2.90
2023-02-03T08:29:35.271Z,3.25
2023-02-03T08:32:10.756Z,4.38
2023-02-03T08:34:43.855Z,3.92
2023-02-03T08:37:18.533Z,3.42
2023-02-03T08:39:52.262Z,2.47
2023-02-03T08:42:25.217Z,2.67
2023-02-03T08:44:59.702Z,3.20
2023-02-03T08:47:32.777Z,3.63
2023-02-03T08:50:07.254Z,2.47
2023-02-03T08:52:40.521Z,2.55
2023-02-03T08:55:13.371Z,4.40
2023-02-03T08:57:46.288Z,3.83
2023-02-03T09:00:21.935Z,2.30
2023-02-03T09:02:54.839Z,2.42
2023-02-03T09:05:27.791Z,2.95
2023-02-03T09:08:00.808Z,4.10
2023-02-03T09:10:33.703Z,3.30
2023-02-03T09:13:06.580Z,3.30
2023-02-03T09:15:41.011Z,2.05
2023-02-03T09:18:13.957Z,3.03
2023-02-03T09:20:46.794Z,5.20
2023-02-03T09:23:19.833Z,1.60
2023-02-03T09:25:53.207Z,3.60
2023-02-03T09:28:26.139Z,3.53
2023-02-03T09:31:02.540Z,2.00
2023-02-03T09:33:35.989Z,1.40
2023-02-03T09:36:09.709Z,3.13
2023-02-03T09:38:42.620Z,3.20
2023-02-03T09:41:29.109Z,2.20
2023-02-03T09:44:06.301Z,1.50
2023-02-03T09:46:43.413Z,2.53
2023-02-03T09:49:23.498Z,1.38
2023-02-03T09:52:00.703Z,1.73
2023-02-03T09:54:43.506Z,1.83
2023-02-03T09:57:22.363Z,2.10
2023-02-03T09:59:59.371Z,3.17
2023-02-03T10:02:51.149Z,1.77
2023-02-03T10:05:32.338Z,1.42
2023-02-03T10:08:15.691Z,1.70
2023-02-03T10:11:10.608Z,1.20
2023-02-03T10:13:55.771Z,2.00
2023-02-03T10:16:49.250Z,1.92
2023-02-03T10:19:28.395Z,1.80
2023-02-03T10:22:03.203Z,2.65
2023-02-03T10:24:42.018Z,2.28
2023-02-03T10:27:20.072Z,1.45
2023-02-03T10:29:58.830Z,2.80
2023-02-03T10:32:32.056Z,2.67
2023-02-03T10:35:12.240Z,2.20
2023-02-03T10:37:49.160Z,3.60
2023-02-03T10:40:24.719Z,1.77
2023-02-03T10:43:15.359Z,2.33
2023-02-03T10:45:48.199Z,1.30
2023-02-03T10:48:21.194Z,1.10
2023-02-03T10:50:56.767Z,3.70
2023-02-03T10:53:35.689Z,1.85
2023-02-03T10:56:12.382Z,1.55
2023-02-03T10:58:51.397Z,2.10
2023-02-03T11:01:27.059Z,3.03
2023-02-03T11:04:03.299Z,1.40
2023-02-03T11:06:37.549Z,2.65
2023-02-03T11:09:25.476Z,1.90
2023-02-03T11:12:09.671Z,2.08
2023-02-03T11:14:45.833Z,1.88
2023-02-03T11:17:20.599Z,1.52
2023-02-03T11:19:55.754Z,3.28
2023-02-03T11:22:33.071Z,2.97
2023-02-03T11:25:18.235Z,2.80
2023-02-03T11:27:51.322Z,2.15
2023-02-03T11:30:28.356Z,3.28
2023-02-03T11:33:02.576Z,2.20
2023-02-03T11:35:38.088Z,1.52
2023-02-03T11:38:30.938Z,2.70
2023-02-03T11:41:04.861Z,2.35
2023-02-03T11:43:37.814Z,2.40
2023-02-03T11:46:10.895Z,1.25
2023-02-03T11:48:58.322Z,1.77
2023-02-03T11:51:39.703Z,2.00
2023-02-03T11:54:29.199Z,2.58
2023-02-03T11:57:17.228Z,1.73
2023-02-03T12:00:13.714Z,1.35
2023-02-03T12:03:19.659Z,0.68
2023-02-03T12:06:14.815Z,0.85
2023-02-03T12:08:59.942Z,1.02
2023-02-03T12:11:50.218Z,1.13
2023-02-03T12:14:38.031Z,0.73
2023-02-03T12:17:33.971Z,1.00
2023-02-03T12:20:21.019Z,0.50
2023-02-03T12:23:04.107Z,0.77
2023-02-03T12:25:50.194Z,0.75
2023-02-03T12:28:45.285Z,0.88
2023-02-03T12:31:27.680Z,1.95
2023-02-03T12:34:11.076Z,0.85
2023-02-03T12:36:49.904Z,2.58
2023-02-03T12:39:27.712Z,1.02
2023-02-03T12:42:05.707Z,1.95
2023-02-03T12:44:48.927Z,1.80
2023-02-03T12:47:30.410Z,1.23
2023-02-03T12:50:11.632Z,0.68
2023-02-03T12:52:49.006Z,0.73
2023-02-03T12:55:28.483Z,3.10
2023-02-03T12:58:06.164Z,0.80
2023-02-03T13:00:47.372Z,1.45
2023-02-03T13:03:28.253Z,0.80
2023-02-03T13:06:09.363Z,2.00
2023-02-03T13:08:47.843Z,2.20
2023-02-03T13:11:27.227Z,1.98
2023-02-03T13:14:05.075Z,2.35
2023-02-03T13:16:45.216Z,0.80
2023-02-03T13:19:24.076Z,0.95
2023-02-03T13:21:56.981Z,3.97
2023-02-03T13:24:31.572Z,3.70
2023-02-03T13:27:19.824Z,2.78
2023-02-03T13:30:11.873Z,1.80
2023-02-03T13:35:45.044Z,1.10
2023-02-03T13:38:52.482Z,0.85
2023-02-03T13:41:33.398Z,2.17
2023-02-03T13:44:08.929Z,0.93
2023-02-03T13:46:42.716Z,3.42
2023-02-03T13:49:25.338Z,3.45
2023-02-03T13:51:58.876Z,1.55
2023-02-03T13:54:35.917Z,3.15
2023-02-03T13:57:23.047Z,3.05
2023-02-03T13:59:56.038Z,2.22
2023-02-03T14:02:55.970Z,2.38
2023-02-03T14:05:50.835Z,0.73
2023-02-03T14:08:53.970Z,1.77
2023-02-03T14:11:45.529Z,1.42
2023-02-03T14:14:58.165Z,1.95
2023-02-03T14:18:18.813Z,2.08
2023-02-03T14:21:15.303Z,1.52
2023-02-03T14:24:00.244Z,4.05
2023-02-03T14:26:43.886Z,1.45
2023-02-03T14:29:27.422Z,1.30
2023-02-03T14:32:02.825Z,1.40
2023-02-03T14:34:39.371Z,2.63
2023-02-03T14:37:25.640Z,2.67
2023-02-03T14:40:18.650Z,2.03
2023-02-03T14:43:16.670Z,0.70
2023-02-03T14:46:27.449Z,2.58
2023-02-03T14:49:19.517Z,2.92
2023-02-03T14:54:49.529Z,0.80
2023-02-03T14:57:36.931Z,0.68
2023-02-03T15:00:28.216Z,8.15
2023-02-03T15:03:30.274Z,1.25
2023-02-03T15:06:05.695Z,1.23
2023-02-03T15:08:44.786Z,2.13
2023-02-03T15:11:24.932Z,1.63
2023-02-03T15:14:19.295Z,0.88
2023-02-03T15:16:56.990Z,2.20
2023-02-03T15:19:34.067Z,1.95
2023-02-03T15:22:20.500Z,1.98
2023-02-03T15:24:55.139Z,1.52
2023-02-03T15:27:29.853Z,1.40
2023-02-03T15:30:19.876Z,3.65
2023-02-03T15:33:03.211Z,6.38
2023-02-03T15:35:40.447Z,1.83
2023-02-03T15:38:16.105Z,1.67
2023-02-03T15:40:53.379Z,1.23
2023-02-03T15:43:32.859Z,0.43
2023-02-03T15:46:15.057Z,0.20
2023-02-03T15:48:52.103Z,1.00
2023-02-03T15:51:33.155Z,1.42
2023-02-03T15:54:12.039Z,0.57
2023-02-03T15:56:55.185Z,0.63
2023-02-03T15:59:33.210Z,0.50
2023-02-03T16:02:18.598Z,0.85
2023-02-03T16:04:51.741Z,2.58
2023-02-03T16:07:27.359Z,1.40
2023-02-03T16:10:01.242Z,1.08
2023-02-03T16:12:35.001Z,2.88
2023-02-03T16:15:22.449Z,1.38
2023-02-03T16:17:59.482Z,0.82
2023-02-03T16:20:33.433Z,0.60
2023-02-03T16:23:18.472Z,0.60
2023-02-03T16:26:08.947Z,1.80
2023-02-03T16:28:59.886Z,1.02
2023-02-03T16:32:03.026Z,1.13
2023-02-03T16:34:54.766Z,4.35
2023-02-03T16:37:47.125Z,3.25
2023-02-03T16:40:40.281Z,2.47
2023-02-03T16:43:35.468Z,1.45
2023-02-03T16:46:30.883Z,1.52
2023-02-03T16:49:21.558Z,1.17
2023-02-03T16:51:56.184Z,1.10
2023-02-03T16:54:29.134Z,3.92
2023-02-03T16:57:01.975Z,2.33
2023-02-03T16:59:34.927Z,8.15
2023-02-03T17:02:08.197Z,13.05
2023-02-03T17:04:41.309Z,11.25
2023-02-03T17:07:15.601Z,3.97
2023-02-03T17:09:48.470Z,4.50
2023-02-03T17:12:21.332Z,3.25
2023-02-03T17:14:55.555Z,1.90
2023-02-03T17:17:29.531Z,1.17
2023-02-03T17:20:02.598Z,1.50
2023-02-03T17:22:37.281Z,1.92
2023-02-03T17:25:10.233Z,2.22
2023-02-03T17:27:43.180Z,0.88
2023-02-03T17:30:16.823Z,2.00
2023-02-03T17:32:49.673Z,2.78
2023-02-03T17:35:22.554Z,1.83
2023-02-03T17:37:57.374Z,1.30
2023-02-03T17:54:45.017Z,3.22
2023-02-03T17:57:18.209Z,1.67
2023-02-03T17:59:55.272Z,2.80
2023-02-03T18:02:28.280Z,3.05
2023-02-03T18:05:01.225Z,2.50
2023-02-03T18:07:34.205Z,4.13
2023-02-03T18:10:09.607Z,4.93
2023-02-03T18:12:43.303Z,3.05
2023-02-03T18:15:16.641Z,2.50
2023-02-03T18:17:49.660Z,2.03
2023-02-03T18:20:22.526Z,2.00
2023-02-03T18:22:55.540Z,1.98
2023-02-03T18:25:29.899Z,2.92
2023-02-03T18:28:02.890Z,2.70
2023-02-03T18:30:36.523Z,1.75
2023-02-03T18:33:09.571Z,1.20
2023-02-03T18:35:42.762Z,10.65
2023-02-03T18:38:15.726Z,13.80
2023-02-03T18:40:49.973Z,13.90
2023-02-03T18:43:23.004Z,21.73
2023-02-03T18:45:55.975Z,11.85
2023-02-03T18:48:28.990Z,5.20
2023-02-03T18:51:03.066Z,5.30
2023-02-03T18:53:36.461Z,3.97
2023-02-03T18:56:14.651Z,3.80
2023-02-03T18:58:47.948Z,2.95
2023-02-03T19:01:23.383Z,4.28
2023-02-03T19:03:57.700Z,3.55
2023-02-03T19:06:32.325Z,3.08
2023-02-03T19:09:06.572Z,3.50
2023-02-03T19:11:40.883Z,7.88
2023-02-03T19:14:16.469Z,1.67
2023-02-03T19:16:50.475Z,3.17
2023-02-03T19:19:23.409Z,4.45
2023-02-03T19:21:56.444Z,1.63
2023-02-03T19:24:29.320Z,3.67
2023-02-03T19:27:03.559Z,4.93
2023-02-03T19:29:38.689Z,5.82
2023-02-03T19:32:12.948Z,2.88
2023-02-03T19:34:45.956Z,1.90
2023-02-03T19:37:18.810Z,1.63
2023-02-03T19:39:51.702Z,0.93
2023-02-03T19:42:26.023Z,1.00
2023-02-03T19:44:58.987Z,1.17
2023-02-03T19:47:31.993Z,0.90
2023-02-03T19:50:06.924Z,2.08
2023-02-03T19:52:39.798Z,1.15
2023-02-03T19:55:16.161Z,0.80
2023-02-03T19:57:50.815Z,0.70
2023-02-03T20:00:24.243Z,1.17
2023-02-03T20:02:57.089Z,1.13
2023-02-03T20:05:30.504Z,1.08
2023-02-03T20:08:03.884Z,1.40
2023-02-03T20:10:36.884Z,1.17
2023-02-03T20:13:11.250Z,3.50
2023-02-03T20:15:47.555Z,2.17
2023-02-03T20:18:20.498Z,1.45
2023-02-03T20:20:55.269Z,2.08
2023-02-03T20:23:28.153Z,1.38
2023-02-03T20:26:01.029Z,0.73
2023-02-03T20:28:35.466Z,1.10
2023-02-03T20:31:08.455Z,3.60
2023-02-03T20:33:41.475Z,0.95
2023-02-03T20:36:14.446Z,1.10
2023-02-03T20:38:47.911Z,0.82
2023-02-03T20:41:20.854Z,1.23
2023-02-03T20:43:55.110Z,1.08
2023-02-03T20:46:28.194Z,1.70
2023-02-03T20:49:01.186Z,1.00
2023-02-03T20:51:34.335Z,1.25
2023-02-03T20:54:15.635Z,0.95
2023-02-03T20:56:49.090Z,0.68
2023-02-03T20:59:23.640Z,0.85
2023-02-03T21:01:56.603Z,1.17
2023-02-03T21:04:47.171Z,1.85
2023-02-03T21:07:20.367Z,0.80
2023-02-03T21:09:53.360Z,1.80
2023-02-03T21:12:27.159Z,2.50
2023-02-03T21:15:01.426Z,1.27
2023-02-03T21:17:37.295Z,1.83
2023-02-03T21:20:25.021Z,1.88
2023-02-03T21:22:59.123Z,1.90
2023-02-03T21:25:34.129Z,0.73
2023-02-03T21:28:07.189Z,2.30
2023-02-03T21:30:41.637Z,0.88
2023-02-03T21:33:30.894Z,1.13
2023-02-03T21:36:03.837Z,0.70
2023-02-03T21:38:36.723Z,0.70
2023-02-03T21:41:15.847Z,1.60
2023-02-03T21:43:52.529Z,0.85
2023-02-03T21:46:28.693Z,1.02
2023-02-03T21:49:03.156Z,0.32
2023-02-03T21:51:38.143Z,4.13
2023-02-03T21:54:24.551Z,1.35
2023-02-03T21:56:58.546Z,1.63
2023-02-03T21:59:42.335Z,0.70
2023-02-03T22:02:47.474Z,1.98
2023-02-03T22:05:21.182Z,1.77
2023-02-03T22:07:54.790Z,0.85
2023-02-03T22:10:28.022Z,1.00
2023-02-03T22:13:01.102Z,1.00
2023-02-03T22:15:34.015Z,1.38
2023-02-03T22:18:08.385Z,1.00
2023-02-03T22:20:41.294Z,1.02
2023-02-03T22:23:14.250Z,1.05
2023-02-03T22:25:47.853Z,0.38
2023-02-03T22:28:20.866Z,0.85
2023-02-03T22:30:54.112Z,1.60
2023-02-03T22:33:28.393Z,0.80
2023-02-03T22:36:01.426Z,1.48
2023-02-03T22:38:34.610Z,0.82
2023-02-03T22:41:08.889Z,0.95
2023-02-03T22:43:42.026Z,0.75
2023-02-03T22:46:15.002Z,0.82
2023-02-03T22:48:49.427Z,2.38
2023-02-03T22:51:22.434Z,1.23
2023-02-03T22:53:55.199Z,0.63
2023-02-03T22:56:28.273Z,1.13
2023-02-03T22:59:01.107Z,1.33
2023-02-03T23:01:34.678Z,1.10
2023-02-03T23:04:08.987Z,1.02
2023-02-03T23:06:42.030Z,0.68
2023-02-03T23:09:14.906Z,0.95
2023-02-03T23:11:47.791Z,0.95
2023-02-03T23:14:20.818Z,0.47
2023-02-03T23:16:56.716Z,0.75
2023-02-03T23:19:30.993Z,0.50
2023-02-03T23:22:04.171Z,0.73
2023-02-03T23:24:37.237Z,1.02
2023-02-03T23:27:10.380Z,3.33
2023-02-03T23:29:43.559Z,0.90
2023-02-03T23:32:16.555Z,0.50
2023-02-03T23:35:08.350Z,0.63
2023-02-03T23:37:41.274Z,1.05
2023-02-03T23:40:14.559Z,2.03
2023-02-03T23:42:47.456Z,1.05
2023-02-03T23:45:20.366Z,1.95
2023-02-03T23:47:53.539Z,1.95
2023-02-03T23:50:27.913Z,0.90
2023-02-03T23:53:01.213Z,2.50
2023-02-03T23:55:34.080Z,1.42
2023-02-03T23:58:07.013Z,0.77
